createdAt,value
2018-05-29T00:00:59.676Z,26.90
2018-05-29T00:03:27.119Z,26.90
2018-05-29T00:11:37.060Z,26.60
2018-05-29T00:14:04.494Z,26.50
2018-05-29T00:16:32.734Z,26.70
2018-05-29T00:19:00.164Z,26.60
2018-05-29T00:21:27.623Z,26.60
2018-05-29T00:23:55.040Z,26.60
2018-05-29T00:26:23.258Z,26.50
2018-05-29T00:28:50.706Z,26.50
2018-05-29T00:31:18.127Z,26.50
2018-05-29T00:33:46.344Z,26.40
2018-05-29T00:36:14.353Z,26.40
2018-05-29T00:38:41.797Z,26.30
2018-05-29T00:41:09.230Z,26.30
2018-05-29T00:43:36.863Z,26.30
2018-05-29T00:46:04.300Z,26.20
2018-05-29T00:48:31.737Z,26.20
2018-05-29T00:50:59.168Z,26.10
2018-05-29T00:53:26.619Z,26.10
2018-05-29T00:55:54.065Z,26.00
2018-05-29T00:58:21.492Z,26.00
2018-05-29T01:00:49.691Z,26.10
2018-05-29T01:03:17.891Z,26.00
2018-05-29T01:05:45.324Z,26.00
2018-05-29T01:08:12.759Z,26.00
2018-05-29T01:10:40.961Z,25.90
2018-05-29T01:13:08.423Z,25.90
2018-05-29T01:15:36.607Z,26.00
2018-05-29T01:18:04.051Z,25.90
2018-05-29T01:20:31.490Z,25.90
2018-05-29T01:22:59.699Z,25.80
2018-05-29T01:25:27.133Z,25.80
2018-05-29T01:27:54.572Z,25.80
2018-05-29T01:30:22.776Z,25.70
2018-05-29T01:32:50.222Z,25.60
2018-05-29T01:35:17.658Z,25.70
2018-05-29T01:37:45.095Z,25.70
2018-05-29T01:40:12.521Z,25.60
2018-05-29T01:42:39.961Z,25.60
2018-05-29T01:45:07.389Z,25.60
2018-05-29T01:47:35.593Z,25.50
2018-05-29T01:50:03.084Z,25.50
2018-05-29T01:52:30.522Z,25.50
2018-05-29T01:54:57.947Z,25.50
2018-05-29T01:57:26.322Z,25.50
2018-05-29T01:59:53.881Z,25.40
2018-05-29T02:02:22.080Z,25.40
2018-05-29T02:04:49.521Z,25.40
2018-05-29T02:07:17.715Z,25.30
2018-05-29T02:09:45.152Z,25.30
2018-05-29T02:12:13.351Z,25.20
2018-05-29T02:14:40.783Z,25.20
2018-05-29T02:17:08.980Z,25.20
2018-05-29T02:19:37.289Z,25.10
2018-05-29T02:22:05.498Z,25.10
2018-05-29T02:24:33.468Z,25.00
2018-05-29T02:27:00.919Z,25.00
2018-05-29T02:29:28.364Z,25.00
2018-05-29T02:31:55.809Z,25.00
2018-05-29T02:34:23.336Z,25.00
2018-05-29T02:36:50.755Z,25.00
2018-05-29T02:39:18.968Z,24.90
2018-05-29T02:41:46.401Z,24.90
2018-05-29T02:44:14.628Z,24.90
2018-05-29T02:46:42.048Z,24.80
2018-05-29T02:49:09.497Z,24.90
2018-05-29T02:51:37.717Z,24.90
2018-05-29T02:54:05.152Z,24.80
2018-05-29T02:56:32.584Z,24.70
2018-05-29T02:59:00.779Z,24.70
2018-05-29T03:01:28.211Z,24.70
2018-05-29T03:03:56.441Z,24.70
2018-05-29T03:06:23.980Z,24.70
2018-05-29T03:08:51.432Z,24.70
2018-05-29T03:11:18.853Z,24.60
2018-05-29T03:13:46.438Z,24.60
2018-05-29T03:16:13.864Z,24.60
2018-05-29T03:18:41.308Z,24.60
2018-05-29T03:21:08.759Z,24.60
2018-05-29T03:23:36.212Z,24.60
2018-05-29T03:26:03.685Z,24.60
2018-05-29T03:28:31.117Z,24.60
2018-05-29T03:30:58.553Z,24.50
2018-05-29T03:33:25.984Z,24.50
2018-05-29T03:35:54.683Z,24.40
2018-05-29T03:38:22.144Z,24.40
2018-05-29T03:40:49.583Z,24.40
2018-05-29T03:43:17.783Z,24.40
2018-05-29T03:45:45.225Z,24.30
2018-05-29T03:48:13.419Z,24.30
2018-05-29T03:50:40.851Z,24.30
2018-05-29T03:53:09.061Z,24.30
2018-05-29T03:55:36.496Z,24.30
2018-05-29T03:58:04.032Z,24.30
2018-05-29T04:00:31.468Z,24.20
2018-05-29T04:02:58.893Z,24.30
2018-05-29T04:05:27.163Z,24.40
2018-05-29T04:07:54.584Z,24.30
2018-05-29T04:10:22.786Z,24.20
2018-05-29T04:12:50.220Z,24.20
2018-05-29T04:15:18.423Z,24.30
2018-05-29T04:17:45.852Z,24.30
2018-05-29T04:20:14.048Z,24.40
2018-05-29T04:22:41.483Z,24.30
2018-05-29T04:25:09.688Z,24.40
2018-05-29T04:27:37.124Z,24.40
2018-05-29T04:30:05.334Z,24.40
2018-05-29T04:32:32.763Z,24.40
2018-05-29T04:35:00.196Z,24.50
2018-05-29T04:37:27.633Z,24.50
2018-05-29T04:39:55.075Z,24.50
2018-05-29T04:42:22.502Z,24.50
2018-05-29T04:44:49.942Z,24.60
2018-05-29T04:47:18.135Z,24.70
2018-05-29T04:49:45.604Z,24.70
2018-05-29T04:52:13.771Z,24.80
2018-05-29T04:54:41.216Z,24.80
2018-05-29T04:57:09.414Z,24.80
2018-05-29T04:59:36.857Z,24.70
2018-05-29T05:02:04.288Z,24.90
2018-05-29T05:04:32.493Z,25.10
2018-05-29T05:06:59.927Z,25.10
2018-05-29T05:09:28.244Z,25.00
2018-05-29T05:11:55.667Z,25.00
2018-05-29T05:14:23.921Z,25.10
2018-05-29T05:16:51.343Z,25.10
2018-05-29T05:19:18.791Z,25.30
2018-05-29T05:21:46.224Z,25.30
2018-05-29T05:24:13.664Z,25.40
2018-05-29T05:26:41.872Z,25.60
2018-05-29T05:29:09.314Z,25.60
2018-05-29T05:31:36.758Z,25.70
2018-05-29T05:34:04.962Z,25.80
2018-05-29T05:36:32.397Z,25.80
2018-05-29T05:39:00.596Z,25.80
2018-05-29T05:41:28.036Z,25.80
2018-05-29T05:43:56.384Z,26.10
2018-05-29T05:46:23.824Z,26.10
2018-05-29T05:48:51.260Z,26.00
2018-05-29T05:51:18.708Z,26.30
2018-05-29T05:53:46.165Z,26.40
2018-05-29T05:56:13.615Z,26.30
2018-05-29T05:58:41.042Z,26.30
2018-05-29T06:01:09.260Z,26.50
2018-05-29T06:03:36.692Z,26.50
2018-05-29T06:06:04.140Z,26.40
2018-05-29T06:08:32.369Z,26.50
2018-05-29T06:10:59.819Z,26.40
2018-05-29T06:13:28.082Z,26.80
2018-05-29T06:15:55.530Z,26.80
2018-05-29T06:18:23.800Z,26.70
2018-05-29T06:20:51.254Z,26.70
2018-05-29T06:23:18.711Z,26.70
2018-05-29T06:25:46.139Z,26.90
2018-05-29T06:28:13.634Z,27.20
2018-05-29T06:30:42.461Z,27.90
2018-05-29T06:33:09.947Z,27.80
2018-05-29T06:35:37.376Z,27.90
2018-05-29T06:38:04.817Z,27.90
2018-05-29T06:40:32.268Z,28.50
2018-05-29T06:42:59.689Z,29.60
2018-05-29T06:45:27.904Z,33.00
2018-05-29T06:47:55.316Z,32.90
2018-05-29T06:50:23.532Z,35.70
2018-05-29T06:52:50.955Z,35.60
2018-05-29T06:55:19.160Z,37.40
2018-05-29T06:57:46.636Z,37.40
2018-05-29T07:00:14.819Z,39.00
2018-05-29T07:02:42.257Z,39.00
2018-05-29T07:05:09.683Z,39.30
2018-05-29T07:07:37.893Z,41.00
2018-05-29T07:10:05.349Z,41.00
2018-05-29T07:12:32.780Z,41.70
2018-05-29T07:15:00.215Z,42.60
2018-05-29T07:17:27.659Z,43.30
2018-05-29T07:19:55.103Z,43.90
2018-05-29T07:22:22.536Z,44.20
2018-05-29T07:24:49.970Z,44.40
2018-05-29T07:27:17.449Z,44.50
2018-05-29T07:29:45.726Z,45.30
2018-05-29T07:32:13.185Z,45.40
2018-05-29T07:34:40.612Z,45.80
2018-05-29T07:37:08.824Z,46.10
2018-05-29T07:39:36.268Z,46.10
2018-05-29T07:42:03.695Z,46.30
2018-05-29T07:44:31.887Z,46.90
2018-05-29T07:46:59.332Z,46.90
2018-05-29T07:49:27.537Z,47.40
2018-05-29T07:51:55.006Z,47.30
2018-05-29T07:54:23.233Z,47.40
2018-05-29T07:56:51.451Z,47.30
2018-05-29T07:59:18.883Z,47.30
2018-05-29T08:01:47.088Z,47.70
2018-05-29T08:04:14.528Z,47.70
2018-05-29T08:06:41.963Z,47.60
2018-05-29T08:09:10.161Z,46.10
2018-05-29T08:11:37.597Z,46.10
2018-05-29T08:14:05.791Z,44.80
2018-05-29T08:16:33.227Z,44.80
2018-05-29T08:19:01.438Z,44.10
2018-05-29T08:21:28.886Z,44.10
2018-05-29T08:23:56.324Z,43.20
2018-05-29T08:26:24.525Z,41.70
2018-05-29T08:28:51.976Z,41.70
2018-05-29T08:31:19.405Z,40.80
2018-05-29T08:33:47.644Z,39.00
2018-05-29T08:36:15.083Z,38.90
2018-05-29T08:38:42.533Z,38.60
2018-05-29T08:41:09.963Z,38.30
2018-05-29T08:43:37.406Z,38.10
2018-05-29T08:46:05.614Z,37.80
2018-05-29T08:48:33.054Z,37.80
2018-05-29T08:51:01.249Z,37.90
2018-05-29T08:53:28.675Z,37.80
2018-05-29T08:55:56.872Z,38.00
2018-05-29T08:58:24.314Z,38.00
2018-05-29T09:00:52.516Z,37.90
2018-05-29T09:03:19.976Z,37.90
2018-05-29T09:05:47.405Z,38.00
2018-05-29T09:08:15.607Z,37.90
2018-05-29T09:10:43.068Z,37.90
2018-05-29T09:13:10.509Z,37.90
2018-05-29T09:15:37.940Z,38.00
2018-05-29T09:18:06.148Z,38.40
2018-05-29T09:20:33.580Z,38.30
2018-05-29T09:23:01.787Z,38.50
2018-05-29T09:25:29.212Z,38.50
2018-05-29T09:27:57.420Z,38.60
2018-05-29T09:30:24.880Z,38.60
2018-05-29T09:32:52.314Z,38.80
2018-05-29T09:35:19.747Z,38.80
2018-05-29T09:37:47.976Z,38.70
2018-05-29T09:40:15.403Z,38.70
2018-05-29T09:42:43.601Z,38.70
2018-05-29T09:45:11.032Z,38.70
2018-05-29T09:47:39.240Z,39.00
2018-05-29T09:50:06.677Z,39.00
2018-05-29T09:52:34.122Z,39.00
2018-05-29T09:55:02.327Z,39.00
2018-05-29T09:57:29.776Z,39.00
2018-05-29T09:59:57.204Z,39.00
2018-05-29T10:02:25.413Z,39.20
2018-05-29T10:04:52.840Z,39.20
2018-05-29T10:07:21.045Z,39.10
2018-05-29T10:09:48.486Z,39.10
2018-05-29T10:12:15.929Z,39.10
2018-05-29T10:14:44.129Z,39.30
2018-05-29T10:17:12.543Z,39.30
2018-05-29T10:19:39.978Z,39.20
2018-05-29T10:22:07.415Z,39.40
2018-05-29T10:24:34.907Z,39.50
2018-05-29T10:27:03.059Z,39.50
2018-05-29T10:29:30.505Z,39.50
2018-05-29T10:31:57.940Z,39.40
2018-05-29T10:34:26.169Z,39.50
2018-05-29T10:36:53.612Z,39.50
2018-05-29T10:39:21.053Z,39.50
2018-05-29T10:41:48.492Z,39.60
2018-05-29T10:44:16.721Z,39.70
2018-05-29T10:46:44.154Z,39.70
2018-05-29T10:49:11.595Z,39.50
2018-05-29T10:51:39.040Z,39.60
2018-05-29T10:54:07.271Z,39.50
2018-05-29T10:56:34.708Z,39.50
2018-05-29T10:59:02.688Z,39.60
2018-05-29T11:01:30.103Z,39.80
2018-05-29T11:03:58.335Z,39.70
2018-05-29T11:06:25.757Z,39.70
2018-05-29T11:08:53.216Z,39.70
2018-05-29T11:11:20.636Z,39.70
2018-05-29T11:13:48.072Z,39.70
2018-05-29T11:16:16.027Z,40.00
2018-05-29T11:18:43.479Z,40.10
2018-05-29T11:21:10.909Z,40.30
2018-05-29T11:23:38.348Z,40.60
2018-05-29T11:26:06.536Z,40.30
2018-05-29T11:28:33.978Z,40.30
2018-05-29T11:31:02.192Z,40.20
2018-05-29T11:33:29.619Z,40.20
2018-05-29T11:35:57.054Z,40.50
2018-05-29T11:38:24.511Z,40.60
2018-05-29T11:40:51.971Z,40.40
2018-05-29T11:43:19.403Z,40.40
2018-05-29T11:45:46.936Z,40.50
2018-05-29T11:48:14.356Z,40.60
2018-05-29T11:50:42.556Z,40.80
2018-05-29T11:53:09.995Z,40.80
2018-05-29T11:55:38.208Z,41.10
2018-05-29T11:58:05.653Z,41.00
2018-05-29T12:00:33.137Z,41.30
2018-05-29T12:03:01.290Z,40.90
2018-05-29T12:05:28.766Z,40.80
2018-05-29T12:07:56.212Z,40.70
2018-05-29T12:10:24.075Z,40.90
2018-05-29T12:12:51.487Z,41.20
2018-05-29T12:15:19.759Z,41.60
2018-05-29T12:17:47.180Z,41.60
2018-05-29T12:20:14.711Z,41.90
2018-05-29T12:22:42.143Z,41.80
2018-05-29T12:25:10.413Z,41.10
2018-05-29T12:27:37.800Z,41.10
2018-05-29T12:30:05.239Z,40.90
2018-05-29T12:32:33.445Z,40.10
2018-05-29T12:35:00.883Z,40.10
2018-05-29T12:37:28.326Z,39.80
2018-05-29T12:39:56.521Z,38.80
2018-05-29T12:42:23.959Z,38.80
2018-05-29T12:44:52.164Z,38.20
2018-05-29T12:47:19.600Z,38.20
2018-05-29T12:49:47.809Z,37.80
2018-05-29T12:52:15.248Z,37.80
2018-05-29T12:54:42.683Z,37.50
2018-05-29T12:57:10.891Z,37.20
2018-05-29T12:59:38.320Z,37.20
2018-05-29T13:02:06.523Z,36.90
2018-05-29T13:04:33.956Z,36.90
2018-05-29T13:07:02.161Z,36.40
2018-05-29T13:09:29.600Z,36.40
2018-05-29T13:11:57.043Z,36.40
2018-05-29T13:14:25.305Z,36.10
2018-05-29T13:16:52.711Z,36.10
2018-05-29T13:19:20.148Z,35.90
2018-05-29T13:21:47.591Z,35.80
2018-05-29T13:24:15.807Z,35.60
2018-05-29T13:26:43.248Z,35.60
2018-05-29T13:29:10.697Z,35.40
2018-05-29T13:31:38.162Z,35.10
2018-05-29T13:34:05.579Z,35.00
2018-05-29T13:36:33.015Z,34.90
2018-05-29T13:39:00.449Z,34.70
2018-05-29T13:41:27.877Z,34.60
2018-05-29T13:43:55.312Z,34.50
2018-05-29T13:46:23.515Z,32.80
2018-05-29T13:48:50.947Z,32.80
2018-05-29T13:51:19.147Z,32.50
2018-05-29T13:53:46.583Z,32.50
2018-05-29T13:56:14.793Z,32.70
2018-05-29T13:58:42.252Z,32.70
2018-05-29T14:01:09.681Z,32.60
2018-05-29T14:03:37.127Z,32.40
2018-05-29T14:06:05.360Z,32.60
2018-05-29T14:08:32.817Z,32.60
2018-05-29T14:11:00.247Z,32.50
2018-05-29T14:13:27.687Z,32.30
2018-05-29T14:15:55.192Z,31.60
2018-05-29T14:18:22.650Z,30.70
2018-05-29T14:20:50.089Z,30.30
2018-05-29T14:23:17.545Z,30.20
2018-05-29T14:25:44.974Z,29.80
2018-05-29T14:28:13.205Z,28.20
2018-05-29T14:30:40.671Z,28.10
2018-05-29T14:33:08.116Z,28.00
2018-05-29T14:35:35.566Z,27.70
2018-05-29T14:38:02.996Z,27.30
2018-05-29T14:40:30.570Z,26.90
2018-05-29T14:42:57.991Z,27.30
2018-05-29T14:45:26.191Z,26.70
2018-05-29T14:47:53.626Z,26.70
2018-05-29T14:50:21.835Z,27.00
2018-05-29T14:52:49.273Z,27.00
2018-05-29T14:55:16.698Z,27.00
2018-05-29T14:57:44.153Z,27.10
2018-05-29T15:00:11.583Z,26.90
2018-05-29T15:02:39.021Z,26.80
2018-05-29T15:05:06.457Z,27.10
2018-05-29T15:07:34.661Z,26.90
2018-05-29T15:10:02.089Z,26.80
2018-05-29T15:12:29.536Z,26.80
2018-05-29T15:14:57.735Z,27.10
2018-05-29T15:17:25.180Z,27.00
2018-05-29T15:19:52.608Z,27.40
2018-05-29T15:22:20.057Z,27.10
2018-05-29T15:24:47.486Z,26.60
2018-05-29T15:27:14.925Z,26.00
2018-05-29T15:29:42.356Z,26.00
2018-05-29T15:32:10.569Z,26.80
2018-05-29T15:34:37.990Z,26.80
2018-05-29T15:37:06.197Z,27.10
2018-05-29T15:39:33.623Z,27.10
2018-05-29T15:42:02.341Z,27.10
2018-05-29T15:44:29.775Z,27.10
2018-05-29T15:46:57.235Z,26.50
2018-05-29T15:49:25.440Z,26.00
2018-05-29T15:51:52.890Z,26.00
2018-05-29T15:54:20.399Z,26.00
2018-05-29T15:56:47.809Z,26.00
2018-05-29T15:59:15.265Z,25.90
2018-05-29T16:01:42.699Z,26.10
2018-05-29T16:04:10.143Z,26.30
2018-05-29T16:06:38.349Z,25.70
2018-05-29T16:09:05.775Z,25.60
2018-05-29T16:11:33.972Z,25.40
2018-05-29T16:14:01.457Z,25.40
2018-05-29T16:16:29.612Z,24.20
2018-05-29T16:18:57.052Z,24.20
2018-05-29T16:21:25.262Z,23.80
2018-05-29T16:23:52.696Z,23.80
2018-05-29T16:26:20.136Z,23.90
2018-05-29T16:28:48.345Z,23.90
2018-05-29T16:31:15.798Z,23.90
2018-05-29T16:33:43.225Z,24.00
2018-05-29T16:36:11.440Z,24.20
2018-05-29T16:38:38.897Z,24.10
2018-05-29T16:41:06.329Z,24.00
2018-05-29T16:43:33.751Z,23.90
2018-05-29T16:46:01.193Z,24.10
2018-05-29T16:48:28.632Z,24.30
2018-05-29T16:50:56.068Z,24.60
2018-05-29T16:53:23.517Z,24.90
2018-05-29T16:55:50.955Z,25.20
2018-05-29T16:58:19.190Z,25.80
2018-05-29T17:00:46.612Z,25.80
2018-05-29T17:03:14.048Z,26.00
2018-05-29T17:05:42.253Z,26.30
2018-05-29T17:08:09.708Z,26.20
2018-05-29T17:10:37.150Z,26.50
2018-05-29T17:13:04.604Z,26.40
2018-05-29T17:15:32.122Z,26.50
2018-05-29T17:17:59.553Z,26.70
2018-05-29T17:20:26.987Z,26.50
2018-05-29T17:22:55.467Z,26.60
2018-05-29T17:25:22.907Z,26.80
2018-05-29T17:27:51.104Z,27.00
2018-05-29T17:30:18.552Z,27.00
2018-05-29T17:32:45.987Z,27.30
2018-05-29T17:35:14.192Z,27.40
2018-05-29T17:37:41.627Z,27.40
2018-05-29T17:40:09.825Z,27.30
2018-05-29T17:42:37.256Z,27.20
2018-05-29T17:45:05.476Z,27.40
2018-05-29T17:47:32.897Z,27.40
2018-05-29T17:50:01.114Z,27.70
2018-05-29T17:52:28.539Z,27.70
2018-05-29T17:54:55.972Z,27.60
2018-05-29T17:57:24.167Z,27.50
2018-05-29T17:59:51.622Z,27.50
2018-05-29T18:02:19.112Z,27.40
2018-05-29T18:04:47.260Z,27.30
2018-05-29T18:07:14.695Z,27.30
2018-05-29T18:09:42.904Z,27.30
2018-05-29T18:12:10.331Z,27.30
2018-05-29T18:14:38.544Z,27.20
2018-05-29T18:17:05.966Z,27.20
2018-05-29T18:19:34.227Z,27.10
2018-05-29T18:22:01.642Z,27.00
2018-05-29T18:24:29.083Z,26.70
2018-05-29T18:26:56.515Z,26.60
2018-05-29T18:29:24.731Z,26.50
2018-05-29T18:31:52.169Z,26.50
2018-05-29T18:34:19.622Z,26.60
2018-05-29T18:36:47.052Z,26.60
2018-05-29T18:39:14.531Z,26.60
2018-05-29T18:41:42.706Z,26.70
2018-05-29T18:44:10.155Z,26.70
2018-05-29T18:46:38.398Z,26.50
2018-05-29T18:49:05.809Z,26.50
2018-05-29T18:51:34.050Z,26.20
2018-05-29T18:54:01.464Z,26.20
2018-05-29T18:56:28.904Z,26.10
2018-05-29T18:58:56.359Z,26.00
2018-05-29T19:01:23.804Z,25.80
2018-05-29T19:03:51.988Z,25.80
2018-05-29T19:06:19.428Z,25.80
2018-05-29T19:08:47.636Z,25.90
2018-05-29T19:11:15.081Z,25.90
2018-05-29T19:13:42.811Z,26.00
2018-05-29T19:16:10.238Z,25.70
2018-05-29T19:18:37.681Z,25.70
2018-05-29T19:21:05.124Z,25.70
2018-05-29T19:23:32.741Z,25.80
2018-05-29T19:26:00.184Z,25.90
2018-05-29T19:28:27.619Z,26.00
2018-05-29T19:30:55.791Z,26.10
2018-05-29T19:33:23.224Z,26.10
2018-05-29T19:35:50.660Z,26.00
2018-05-29T19:38:18.852Z,25.30
2018-05-29T19:40:46.296Z,25.30
2018-05-29T19:43:14.527Z,25.10
2018-05-29T19:45:41.993Z,25.10
2018-05-29T19:48:09.420Z,25.10
2018-05-29T19:50:36.855Z,25.10
2018-05-29T19:53:04.289Z,24.90
2018-05-29T19:55:32.494Z,25.30
2018-05-29T19:57:59.924Z,25.30
2018-05-29T20:00:28.128Z,25.50
2018-05-29T20:02:56.052Z,25.50
2018-05-29T20:05:23.506Z,25.50
2018-05-29T20:07:52.437Z,25.00
2018-05-29T20:10:19.869Z,25.00
2018-05-29T20:12:47.304Z,24.90
2018-05-29T20:15:14.768Z,25.00
2018-05-29T20:17:42.200Z,24.90
2018-05-29T20:20:09.726Z,24.60
2018-05-29T20:22:37.104Z,25.10
2018-05-29T20:25:04.544Z,25.30
2018-05-29T20:27:32.010Z,25.30
2018-05-29T20:29:59.488Z,25.50
2018-05-29T20:32:26.921Z,25.80
2018-05-29T20:34:54.359Z,25.90
2018-05-29T20:37:22.562Z,25.90
2018-05-29T20:39:49.997Z,25.90
2018-05-29T20:42:18.202Z,25.50
2018-05-29T20:44:45.679Z,25.40
2018-05-29T20:47:13.099Z,25.50
2018-05-29T20:49:40.529Z,25.00
2018-05-29T20:52:08.735Z,25.00
2018-05-29T20:54:36.260Z,25.00
2018-05-29T20:57:03.715Z,25.20
2018-05-29T20:59:31.198Z,25.00
2018-05-29T21:01:59.401Z,25.10
2018-05-29T21:04:26.856Z,25.10
2018-05-29T21:06:54.316Z,25.10
2018-05-29T21:09:21.756Z,25.10
2018-05-29T21:11:49.224Z,25.20
2018-05-29T21:14:16.701Z,25.10
2018-05-29T21:16:44.123Z,25.10
2018-05-29T21:19:11.566Z,25.10
2018-05-29T21:21:39.779Z,25.20
2018-05-29T21:24:07.219Z,25.20
2018-05-29T21:26:34.651Z,25.30
2018-05-29T21:29:02.847Z,25.50
2018-05-29T21:31:30.296Z,25.50
2018-05-29T21:33:58.492Z,25.40
2018-05-29T21:36:25.948Z,25.40
2018-05-29T21:38:53.375Z,25.30
2018-05-29T21:41:21.591Z,25.50
2018-05-29T21:43:49.006Z,25.40
2018-05-29T21:46:17.235Z,25.70
2018-05-29T21:48:44.668Z,25.60
2018-05-29T21:51:12.108Z,25.60
2018-05-29T21:53:40.318Z,25.60
2018-05-29T21:56:07.739Z,25.60
2018-05-29T21:58:35.931Z,25.80
2018-05-29T22:01:03.375Z,25.80
2018-05-29T22:03:31.563Z,25.70
2018-05-29T22:05:59.000Z,25.70
2018-05-29T22:08:27.195Z,25.40
2018-05-29T22:10:54.640Z,25.40
2018-05-29T22:13:22.850Z,25.60
2018-05-29T22:15:50.289Z,25.60
2018-05-29T22:18:17.711Z,25.50
2018-05-29T22:20:45.917Z,25.20
2018-05-29T22:23:13.388Z,25.20
2018-05-29T22:25:40.829Z,25.30
2018-05-29T22:28:08.290Z,25.50
2018-05-29T22:30:35.739Z,25.60
2018-05-29T22:33:03.945Z,25.60
2018-05-29T22:35:31.382Z,25.50
2018-05-29T22:37:58.819Z,25.60
2018-05-29T22:40:27.030Z,25.60
2018-05-29T22:42:54.528Z,25.60
2018-05-29T22:45:21.964Z,25.50
2018-05-29T22:47:49.420Z,25.60
2018-05-29T22:50:16.859Z,25.60
2018-05-29T22:52:44.300Z,25.60
2018-05-29T22:55:11.732Z,25.60
2018-05-29T22:57:39.935Z,25.40
2018-05-29T23:00:07.364Z,25.40
2018-05-29T23:02:35.585Z,25.20
2018-05-29T23:05:03.016Z,25.20
2018-05-29T23:07:30.469Z,25.20
2018-05-29T23:09:58.672Z,25.10
2018-05-29T23:12:26.131Z,25.10
2018-05-29T23:14:53.555Z,25.20
2018-05-29T23:17:21.768Z,25.20
2018-05-29T23:19:49.204Z,25.20
2018-05-29T23:22:16.856Z,25.30
2018-05-29T23:24:45.037Z,25.30
2018-05-29T23:27:12.473Z,25.30
2018-05-29T23:29:40.672Z,25.40
2018-05-29T23:32:08.114Z,25.40
2018-05-29T23:34:36.320Z,25.50
2018-05-29T23:37:03.759Z,25.50
2018-05-29T23:39:31.188Z,25.50
2018-05-29T23:41:58.632Z,25.40
2018-05-29T23:44:26.095Z,25.40
2018-05-29T23:46:53.530Z,25.50
2018-05-29T23:49:20.960Z,25.50
2018-05-29T23:51:48.412Z,25.50
2018-05-29T23:54:15.861Z,25.50
2018-05-29T23:56:44.080Z,25.50
2018-05-29T23:59:11.487Z,25.40
